• Join FlightAware (Why Join?)
  • Login
  • US Flag 
08:17PM EST


 

Airport Tracker/Info


-or-


 

Live Flight TrackerFlight Track Log ✈ FIN666 ✈ 25-Apr-2014 ✈ EKCH / CPH - EFHK / HEL

Flight Track Log - Related Links

Times and Time Zones

All times are in EDT time to prevent confusion due to time zone crossing. See the FIN666 flight status page for this flight to view local times or setup timezone preferences in your user account.

Time Position Orientation Groundspeed Altitude Reporting Facility
EDT Latitude Longitude Course Direction KTS MPH feet Rate Location/Type
07:27AM 55.8929 13.2255 49° Northeast  Level Estimated
07:28AM 55.9613 13.3692 50° Northeast  Level Estimated
07:29AM 56.0332 13.5214 50° Northeast  Level Estimated
07:30AM 56.1050 13.6741 50° Northeast  Level Estimated
07:31AM 56.1765 13.8275 50° Northeast  Level Estimated
07:32AM 56.2479 13.9813 50° Northeast  Level Estimated
07:33AM 56.3191 14.1358 50° Northeast  Level Estimated
07:34AM 56.3901 14.2909 50° Northeast  Level Estimated
07:35AM 56.4609 14.4465 50° Northeast  Level Estimated
07:36AM 56.5315 14.6027 51° Northeast  Level Estimated
07:37AM 56.6019 14.7595 51° Northeast  Level Estimated
07:38AM 56.6721 14.9169 51° Northeast  Level Estimated
07:39AM 56.7421 15.0748 51° Northeast  Level Estimated
07:40AM 56.8120 15.2334 51° Northeast  Level Estimated
07:41AM 56.8816 15.3925 51° Northeast  Level Estimated
07:42AM 56.9510 15.5522 51° Northeast  Level Estimated
07:43AM 57.0202 15.7126 52° Northeast  Level Estimated
07:44AM 57.0892 15.8735 52° Northeast  Level Estimated
07:45AM 57.1580 16.0350 52° Northeast  Level Estimated
07:46AM 57.2266 16.1971 52° Northeast  Level Estimated
07:47AM 57.2949 16.3598 52° Northeast  Level Estimated
07:48AM 57.3631 16.5232 52° Northeast  Level Estimated
07:49AM 57.4301 16.6849 52° Northeast  Level Estimated
07:50AM 57.4969 16.8471 52° Northeast  Level Estimated
07:51AM 57.5635 17.0100 53° Northeast  Level Estimated
07:52AM 57.6299 17.1735 53° Northeast  Level Estimated
07:53AM 57.6961 17.3376 53° Northeast  Level Estimated
07:54AM 57.7621 17.5022 53° Northeast  Level Estimated
07:55AM 57.8279 17.6675 53° Northeast  Level Estimated
07:56AM 57.8934 17.8334 53° Northeast  Level Estimated
07:57AM 57.9587 17.9998 53° Northeast  Level Estimated
07:58AM 58.0238 18.1669 54° Northeast  Level Estimated
07:59AM 58.0887 18.3346 54° Northeast  Level Estimated
08:00AM 58.1534 18.5029 54° Northeast  Level Estimated
08:01AM 58.2178 18.6718 54° Northeast  Level Estimated
08:02AM 58.2820 18.8414 54° Northeast  Level Estimated
08:03AM 58.3460 19.0115 54° Northeast  Level Estimated
08:04AM 58.4098 19.1823 54° Northeast  Level Estimated
08:05AM 58.4733 19.3536 55° Northeast  Level Estimated
08:06AM 58.5366 19.5256 55° Northeast  Level Estimated
08:07AM 58.5997 19.6983 55° Northeast  Level Estimated
08:08AM 58.6626 19.8715 55° Northeast  Level Estimated
08:09AM 58.7252 20.0454 55° Northeast  Level Estimated
08:10AM 58.7875 20.2199 55° Northeast  Level Estimated
08:11AM 58.8497 20.3950 55° Northeast  Level Estimated
08:12AM 58.9116 20.5707 56° Northeast  Level Estimated
08:13AM 58.9733 20.7471 56° Northeast  Level Estimated
08:14AM 59.0347 20.9241 56° Northeast  Level Estimated
08:15AM 59.0959 21.1017 56° Northeast  Level Estimated
08:16AM 59.1568 21.2800 56° Northeast  Level Estimated
08:17AM 59.2175 21.4589 56° Northeast  Level Estimated
08:18AM 59.2779 21.6385 57° Northeast  Level Estimated
08:19AM 59.3381 21.8186 57° Northeast  Level Estimated
08:20AM 59.3981 21.9995 57° Northeast  Level Estimated
08:21AM 59.4578 22.1809 57° Northeast  Level Estimated
08:22AM 59.5172 22.3630 57° Northeast  Level Estimated
08:23AM 59.5764 22.5457 57° Northeast  Level Estimated
08:24AM 59.6353 22.7291 57° Northeast  Level Estimated
08:25AM 59.6940 22.9132 58° Northeast  Level Estimated
08:26AM 59.7525 23.0978 58° Northeast  Level Estimated
08:27AM 59.8106 23.2831 58° Northeast  Level Estimated
08:28AM 59.8685 23.4691 58° Northeast  Level Estimated
08:29AM 59.9262 23.6557 58° Northeast  Level Estimated
08:30AM 59.9835 23.8430 58° Northeast  Level Estimated
08:31AM 60.0406 24.0309 59° Northeast  Level Estimated
08:32AM 60.0975 24.2194 59° Northeast  Level Estimated
08:33AM 60.1540 24.4087 59° Northeast  Level Estimated
08:34AM 60.2103 24.5985 59° Northeast  Level Estimated
08:35AM 60.2696 24.8001 59° Northeast  Level Estimated
08:36AM 60.3172 24.9633 59° Northeast  Level Estimated
08:37AM 60.3172 24.9633 North  Level Estimated
08:38AM 60.3172 24.9633 North  Level Estimated
08:39AM 60.3172 24.9633 North  Level Estimated
08:40AM 60.3172 24.9633 North  Level Estimated
08:41AM 60.3172 24.9633 North  Level Estimated
08:42AM 60.3172 24.9633 North  Level Estimated
08:43AM 60.3172 24.9633 North  Level Estimated
08:44AM 60.3172 24.9633 North  Level Estimated